Portada
METAR-TAF:

METAR-TAF

Aeropuertos :

Vigo, España

Aeropuerto de Vigo

latitud: 42-13N, longitud: 008-38W, altitud: 264 m

Observación

El informe se hizo hace 20 horas y 9 minutos, a las 15:00 UTC
Viento 11 kt del este-noreste, variando entre norte-noreste y este-sureste
Temperatura 17°C
Humedad 45%
Presión 1020 hPa
Visibilidad 10 km o más
sin nubes por debajo de 1500 m y sin presencia de cumulonimbus.

METAR: LEVX 201500Z 06011KT 020V110 CAVOK 17/05 Q1020 NOSIG

Hora: 12:09 (11:09 UTC)

Pronóstico

El informe se hizo hace 9 minutos, a las 11:00 UTC
Pronóstico válido del 20 a las 12 UTC al 21 a las 12 UTC
Viento 9 kt del noreste
Visibilidad 10 km o más
sin nubes por debajo de 1500 m y sin presencia de cumulonimbus.

TAF: LEVX 201100Z 2012/2112 04009KT CAVOK TX15/2015Z TN06/2107Z

Observaciones y pronósticos meteorológicos de más de 4000 aeropuertos (mensajes METAR y TAF).

Los puntos amarillos y rojos representan las estaciones disponibles.

Ponga el ratón en el punto deseado para ver el nombre de la estación.

Haga clic para ver las observaciones y los pronósticos meteorológicos.

Para cambiar el mapa : haga clic en los botones verdes con una cruz de color negro para hacer un zoom, en el botón verde con un guión para alejar o en las flechas verdes para mapas adyacentes.


METAR-TAF: